createdAt,value
2022-10-06T00:01:34.409Z,13.959351
2022-10-06T00:04:59.533Z,13.878784
2022-10-06T00:08:24.971Z,13.848572
2022-10-06T00:11:49.893Z,13.868713
2022-10-06T00:15:15.056Z,13.848572
2022-10-06T00:18:40.230Z,13.848572
2022-10-06T00:22:05.383Z,13.818359
2022-10-06T00:25:30.581Z,13.808289
2022-10-06T00:28:55.785Z,13.818359
2022-10-06T00:32:20.938Z,13.868713
2022-10-06T00:35:46.100Z,13.868713
2022-10-06T00:39:11.277Z,13.878784
2022-10-06T00:42:36.494Z,13.908997
2022-10-06T00:46:01.767Z,13.848572
2022-10-06T00:49:26.854Z,13.878784
2022-10-06T00:52:52.043Z,13.878784
2022-10-06T00:56:17.232Z,13.868713
2022-10-06T00:59:42.499Z,13.888855
2022-10-06T01:03:07.870Z,13.848572
2022-10-06T01:06:32.872Z,13.868713
2022-10-06T01:09:58.042Z,13.908997
2022-10-06T01:13:23.200Z,13.919067
2022-10-06T01:16:48.381Z,13.969421
2022-10-06T01:20:13.555Z,13.919067
2022-10-06T01:23:38.706Z,13.94928
2022-10-06T01:27:03.884Z,13.94928
2022-10-06T01:30:29.059Z,13.908997
2022-10-06T01:33:54.251Z,13.969421
2022-10-06T01:37:19.443Z,13.989563
2022-10-06T01:40:44.591Z,14.019775
2022-10-06T01:44:09.775Z,13.989563
2022-10-06T01:47:34.916Z,13.989563
2022-10-06T01:51:00.093Z,13.989563
2022-10-06T01:54:25.294Z,13.969421
2022-10-06T01:57:50.451Z,13.989563
2022-10-06T02:01:15.690Z,13.959351
2022-10-06T02:04:40.801Z,13.94928
2022-10-06T02:08:05.971Z,13.959351
2022-10-06T02:11:31.162Z,13.989563
2022-10-06T02:14:56.317Z,13.969421
2022-10-06T02:18:21.485Z,13.919067
2022-10-06T02:21:46.666Z,13.919067
2022-10-06T02:25:11.818Z,13.878784
2022-10-06T02:28:37.103Z,13.878784
2022-10-06T02:32:02.144Z,13.838501
2022-10-06T02:35:27.292Z,13.838501
2022-10-06T02:38:52.455Z,13.868713
2022-10-06T02:42:17.642Z,13.888855
2022-10-06T02:45:42.825Z,13.848572
2022-10-06T02:49:07.965Z,13.848572
2022-10-06T02:52:33.119Z,13.808289
2022-10-06T02:55:58.318Z,13.778076
2022-10-06T02:59:23.480Z,13.727722
2022-10-06T03:02:48.694Z,13.778076
2022-10-06T03:06:13.834Z,13.808289
2022-10-06T03:09:38.984Z,13.838501
2022-10-06T03:13:04.163Z,13.868713
2022-10-06T03:16:29.413Z,13.878784
2022-10-06T03:19:54.585Z,13.838501
2022-10-06T03:23:19.699Z,13.818359
2022-10-06T03:26:44.880Z,13.778076
2022-10-06T03:30:10.038Z,13.788147
2022-10-06T03:33:35.194Z,13.788147
2022-10-06T03:37:00.384Z,13.788147
2022-10-06T03:40:25.512Z,13.768005
2022-10-06T03:43:50.672Z,13.727722
2022-10-06T03:47:17.339Z,13.768005
2022-10-06T03:50:40.994Z,13.727722
2022-10-06T03:54:06.168Z,13.747864
2022-10-06T03:57:31.281Z,13.747864
2022-10-06T04:00:56.541Z,13.747864
2022-10-06T04:04:21.768Z,13.808289
2022-10-06T04:07:46.923Z,13.818359
2022-10-06T04:11:12.100Z,13.868713
2022-10-06T04:14:37.261Z,13.848572
2022-10-06T04:18:02.422Z,13.868713
2022-10-06T04:21:27.657Z,13.888855
2022-10-06T04:24:52.827Z,13.878784
2022-10-06T04:28:18.049Z,13.868713
2022-10-06T04:31:43.244Z,13.868713
2022-10-06T04:35:08.342Z,13.878784
2022-10-06T04:38:33.778Z,13.868713
2022-10-06T04:41:58.776Z,13.848572
2022-10-06T04:45:23.979Z,13.848572
2022-10-06T04:48:49.114Z,13.808289
2022-10-06T04:52:14.284Z,13.788147
2022-10-06T04:55:39.459Z,13.778076
2022-10-06T04:59:04.621Z,13.778076
2022-10-06T05:02:29.801Z,13.747864
2022-10-06T05:05:54.935Z,13.768005
2022-10-06T05:09:20.120Z,13.687439
2022-10-06T05:12:45.278Z,13.637085
2022-10-06T05:16:10.501Z,13.637085
2022-10-06T05:19:35.625Z,13.667297
2022-10-06T05:23:00.762Z,13.667297
2022-10-06T05:26:25.978Z,13.667297
2022-10-06T05:29:51.150Z,13.637085
2022-10-06T05:33:16.291Z,13.637085
2022-10-06T05:36:41.485Z,13.667297
2022-10-06T05:40:06.613Z,13.637085
2022-10-06T05:43:31.766Z,13.667297
2022-10-06T05:46:56.951Z,13.637085
2022-10-06T05:50:22.110Z,13.667297
2022-10-06T05:53:47.343Z,13.637085
2022-10-06T05:57:12.484Z,13.586731
2022-10-06T06:00:37.644Z,13.616943
2022-10-06T06:04:02.840Z,13.596802
2022-10-06T06:07:28.031Z,13.627014
2022-10-06T06:10:53.246Z,13.627014
2022-10-06T06:14:18.431Z,13.667297
2022-10-06T06:17:43.703Z,13.747864
2022-10-06T06:21:08.785Z,13.768005
2022-10-06T06:24:34.028Z,13.768005
2022-10-06T06:27:59.300Z,13.838501
2022-10-06T06:31:24.470Z,13.878784
2022-10-06T06:34:49.595Z,13.878784
2022-10-06T06:38:14.797Z,13.888855
2022-10-06T06:41:40.009Z,13.908997
2022-10-06T06:45:05.368Z,13.908997
2022-10-06T06:48:30.714Z,13.94928
2022-10-06T06:51:55.629Z,13.919067
2022-10-06T06:55:20.811Z,13.94928
2022-10-06T06:58:46.055Z,13.94928
2022-10-06T07:02:11.479Z,13.969421
2022-10-06T07:05:36.498Z,13.969421
2022-10-06T07:09:01.697Z,13.989563
2022-10-06T07:12:26.882Z,13.969421
2022-10-06T07:15:52.081Z,13.919067
2022-10-06T07:19:20.162Z,13.94928
2022-10-06T07:22:42.501Z,13.999634
2022-10-06T07:26:07.697Z,13.989563
2022-10-06T07:29:32.890Z,13.808289
2022-10-06T07:32:58.096Z,13.616943
2022-10-06T07:36:23.342Z,13.355103
2022-10-06T07:39:48.504Z,13.103333
2022-10-06T07:43:13.660Z,13.07312
2022-10-06T07:46:38.840Z,13.032837
2022-10-06T07:50:04.045Z,13.052979
2022-10-06T07:53:29.239Z,13.083191
2022-10-06T07:56:54.408Z,13.113403
2022-10-06T08:00:19.733Z,13.123474
2022-10-06T08:03:44.846Z,13.234253
2022-10-06T08:07:10.044Z,13.254395
2022-10-06T08:10:35.267Z,13.304749
2022-10-06T08:14:00.428Z,13.32489
2022-10-06T08:17:25.642Z,13.334961
2022-10-06T08:20:50.851Z,13.284607
2022-10-06T08:24:16.055Z,13.355103
2022-10-06T08:27:41.356Z,13.355103
2022-10-06T08:31:06.511Z,13.334961
2022-10-06T08:34:31.675Z,13.294678
2022-10-06T08:37:56.866Z,13.304749
2022-10-06T08:41:22.077Z,13.294678
2022-10-06T08:44:47.337Z,13.385315
2022-10-06T08:48:12.535Z,13.475952
2022-10-06T08:51:37.717Z,13.616943
2022-10-06T08:55:02.873Z,13.768005
2022-10-06T08:58:28.024Z,13.818359
2022-10-06T09:01:53.312Z,13.888855
2022-10-06T09:05:18.385Z,13.888855
2022-10-06T09:08:43.659Z,13.888855
2022-10-06T09:12:08.872Z,13.868713
2022-10-06T09:15:34.088Z,13.848572
2022-10-06T09:19:14.705Z,13.888855
2022-10-06T09:22:24.468Z,13.969421
2022-10-06T09:25:49.669Z,14.029846
2022-10-06T09:29:14.886Z,14.090271
2022-10-06T09:32:40.058Z,14.019775
2022-10-06T09:36:05.303Z,13.999634
2022-10-06T09:39:30.471Z,13.999634
2022-10-06T09:42:55.658Z,14.060059
2022-10-06T09:46:20.879Z,14.100342
2022-10-06T09:49:46.085Z,14.170837
2022-10-06T09:53:11.318Z,14.281616
2022-10-06T09:56:36.512Z,14.362183
2022-10-06T10:00:01.687Z,14.432678
2022-10-06T10:03:26.907Z,14.523315
2022-10-06T10:06:52.064Z,14.644165
2022-10-06T10:10:17.409Z,14.724731
2022-10-06T10:13:42.527Z,14.754944
2022-10-06T10:17:07.703Z,14.83551
2022-10-06T10:20:32.874Z,14.95636
2022-10-06T10:23:58.139Z,15.016785
2022-10-06T10:27:23.355Z,15.167847
2022-10-06T10:30:48.499Z,15.187988
2022-10-06T10:34:23.766Z,15.198059
2022-10-06T10:37:39.039Z,15.20813
2022-10-06T10:41:04.215Z,15.228271
2022-10-06T10:44:29.409Z,15.308838
2022-10-06T10:47:54.569Z,15.379333
2022-10-06T10:51:19.898Z,15.359192
2022-10-06T10:54:45.138Z,15.379333
2022-10-06T10:58:10.316Z,15.4599
2022-10-06T11:01:35.543Z,15.510254
2022-10-06T11:05:00.813Z,15.540466
2022-10-06T11:08:25.802Z,15.641174
2022-10-06T11:11:52.301Z,15.651245
2022-10-06T11:15:16.198Z,15.721741
2022-10-06T11:18:41.460Z,15.822449
2022-10-06T11:22:06.666Z,15.862732
2022-10-06T11:25:34.159Z,15.892944
2022-10-06T11:28:57.046Z,15.973511
2022-10-06T11:32:25.119Z,16.003723
2022-10-06T11:35:50.321Z,15.96344
2022-10-06T11:39:15.456Z,15.973511
2022-10-06T11:42:40.763Z,16.003723
2022-10-06T11:46:05.915Z,16.054077
2022-10-06T11:49:31.007Z,16.114502
2022-10-06T11:52:56.246Z,16.144714
2022-10-06T11:56:21.445Z,16.174927
2022-10-06T11:59:46.581Z,16.154785
2022-10-06T12:03:11.855Z,16.054077
2022-10-06T12:06:36.963Z,15.933228
2022-10-06T12:10:02.144Z,15.84259
2022-10-06T12:14:12.250Z,15.782166
2022-10-06T12:17:10.549Z,15.822449
2022-10-06T12:20:17.782Z,15.943298
2022-10-06T12:23:42.943Z,15.943298
2022-10-06T12:27:08.212Z,15.872803
2022-10-06T12:30:33.432Z,15.751953
2022-10-06T12:33:58.580Z,15.681458
2022-10-06T12:37:23.744Z,15.741882
2022-10-06T12:40:48.987Z,15.892944
2022-10-06T12:44:14.232Z,16.023865
2022-10-06T12:47:39.382Z,16.124573
2022-10-06T12:51:04.553Z,16.195068
2022-10-06T12:54:29.728Z,16.265564
2022-10-06T12:57:54.895Z,16.376343
2022-10-06T13:01:20.221Z,16.446838
2022-10-06T13:04:45.299Z,16.517334
2022-10-06T13:08:10.491Z,16.527405
2022-10-06T13:11:35.680Z,16.517334
2022-10-06T13:15:01.134Z,16.426697
2022-10-06T13:18:26.063Z,16.295776
2022-10-06T13:21:51.219Z,16.124573
2022-10-06T13:25:16.377Z,16.09436
2022-10-06T13:28:41.637Z,16.114502
2022-10-06T13:32:06.795Z,16.235352
2022-10-06T13:35:31.999Z,16.305847
2022-10-06T13:38:57.162Z,16.416626
2022-10-06T13:42:22.343Z,16.477051
2022-10-06T13:45:47.536Z,16.487122
2022-10-06T13:49:12.699Z,16.426697
2022-10-06T13:52:37.898Z,16.426697
2022-10-06T13:56:03.054Z,16.305847
2022-10-06T13:59:28.263Z,16.245422
2022-10-06T14:02:53.586Z,16.205139
2022-10-06T14:06:18.617Z,16.09436
2022-10-06T14:09:43.831Z,16.054077
2022-10-06T14:13:08.983Z,16.114502
2022-10-06T14:16:34.211Z,16.144714
2022-10-06T14:19:59.633Z,16.154785
2022-10-06T14:23:24.597Z,16.144714
2022-10-06T14:26:49.790Z,16.144714
2022-10-06T15:03:39.502Z,15.651245
2022-10-06T15:07:04.577Z,15.600891
2022-10-06T15:10:29.792Z,15.621033
2022-10-06T15:13:54.964Z,15.600891
2022-10-06T15:17:20.166Z,15.621033
2022-10-06T15:20:45.369Z,15.59082
2022-10-06T15:24:10.533Z,15.600891
2022-10-06T15:27:35.843Z,15.510254
2022-10-06T15:31:01.014Z,15.469971
2022-10-06T15:34:26.128Z,15.379333
2022-10-06T15:37:51.426Z,15.278625
2022-10-06T15:41:16.539Z,15.167847
2022-10-06T15:44:41.746Z,15.127563
2022-10-06T15:48:06.951Z,15.097351
2022-10-06T15:51:32.132Z,15.097351
2022-10-06T15:54:57.956Z,15.026855
2022-10-06T15:58:23.094Z,15.006714
2022-10-06T16:01:48.416Z,14.95636
2022-10-06T16:05:13.537Z,14.916077
2022-10-06T16:08:38.728Z,14.875793
2022-10-06T16:12:03.934Z,14.825439
2022-10-06T16:15:29.114Z,14.70459
2022-10-06T16:18:54.261Z,14.654236
2022-10-06T16:22:19.467Z,14.573669
2022-10-06T16:25:44.666Z,14.513245
2022-10-06T16:29:09.888Z,14.392395
2022-10-06T16:32:35.134Z,14.271545
2022-10-06T16:36:00.250Z,14.039917
2022-10-06T16:39:25.466Z,13.868713
2022-10-06T16:42:50.663Z,13.69751
2022-10-06T16:46:15.974Z,13.616943
2022-10-06T16:49:41.067Z,13.435669
2022-10-06T16:53:06.226Z,13.284607
2022-10-06T16:56:31.383Z,13.123474
2022-10-06T16:59:56.571Z,13.012695
2022-10-06T17:03:22.132Z,12.871704
2022-10-06T17:06:47.395Z,12.7005
2022-10-06T17:10:21.078Z,12.519226
2022-10-06T17:13:37.778Z,12.418518
2022-10-06T17:17:03.007Z,12.31781
2022-10-06T17:20:28.216Z,12.207031
2022-10-06T17:23:53.412Z,12.156677
2022-10-06T17:27:18.613Z,12.126465
2022-10-06T17:30:43.784Z,12.06604
2022-10-06T17:34:08.961Z,12.035828
2022-10-06T17:37:34.189Z,11.914978
2022-10-06T17:40:59.348Z,11.804199
2022-10-06T17:44:24.509Z,11.703491
2022-10-06T17:47:49.700Z,11.582642
2022-10-06T17:51:15.061Z,11.492004
2022-10-06T17:54:40.320Z,11.43158
2022-10-06T17:58:05.534Z,11.391296
2022-10-06T18:01:30.834Z,11.361084
2022-10-06T18:04:56.105Z,11.290588
2022-10-06T18:08:21.350Z,11.270447
2022-10-06T18:11:46.616Z,11.220093
2022-10-06T18:15:11.836Z,11.240234
2022-10-06T18:18:37.185Z,11.250305
2022-10-06T18:22:02.468Z,11.18988
2022-10-06T18:25:27.763Z,11.149597
2022-10-06T18:28:53.124Z,11.18988
2022-10-06T18:39:09.010Z,11.099243
2022-10-06T18:42:34.309Z,11.018677
2022-10-06T18:45:59.693Z,10.917969
2022-10-06T18:49:24.902Z,10.756836
2022-10-06T18:52:50.198Z,10.726624
2022-10-06T18:56:15.496Z,10.756836
2022-10-06T18:59:40.773Z,10.776978
2022-10-06T19:03:06.057Z,10.817261
2022-10-06T19:06:31.295Z,10.907898
2022-10-06T19:09:56.598Z,10.998535
2022-10-06T19:13:21.955Z,10.988464
2022-10-06T19:16:47.201Z,10.968323
2022-10-06T19:20:12.515Z,11.018677
2022-10-06T19:23:37.767Z,11.038818
2022-10-06T19:27:03.048Z,11.099243
2022-10-06T19:30:28.317Z,11.149597
2022-10-06T19:33:53.576Z,11.109314
2022-10-06T19:37:18.941Z,11.169739
2022-10-06T19:40:44.138Z,11.17981
2022-10-06T19:44:09.441Z,11.139526
2022-10-06T19:47:34.715Z,11.149597
2022-10-06T19:51:02.300Z,11.109314
2022-10-06T19:54:27.664Z,11.018677
2022-10-06T19:57:52.866Z,10.958252
2022-10-06T20:01:18.350Z,10.917969
2022-10-06T20:04:43.632Z,10.887756
2022-10-06T20:08:08.928Z,10.776978
2022-10-06T20:11:34.260Z,10.726624
2022-10-06T20:14:59.469Z,10.635986
2022-10-06T20:18:24.688Z,10.605774
2022-10-06T20:21:49.922Z,10.484924
2022-10-06T20:25:15.146Z,10.454712
2022-10-06T20:28:40.562Z,10.444641
2022-10-06T20:32:05.608Z,10.444641
2022-10-06T20:35:30.841Z,10.4245
2022-10-06T20:38:56.106Z,10.414429
2022-10-06T20:42:21.341Z,10.384216
2022-10-06T20:45:46.677Z,10.364075
2022-10-06T20:49:11.846Z,10.323792
2022-10-06T20:52:37.112Z,10.333862
2022-10-06T20:56:02.348Z,10.364075
2022-10-06T20:59:27.586Z,10.273438
2022-10-06T21:02:53.437Z,10.092163
2022-10-06T21:06:19.022Z,9.961243
2022-10-06T21:09:47.542Z,9.910889
2022-10-06T21:13:10.482Z,9.961243
2022-10-06T21:16:36.192Z,10.021667
2022-10-06T21:20:01.987Z,9.93103
2022-10-06T21:23:27.609Z,9.790039
2022-10-06T21:26:53.322Z,9.709473
2022-10-06T21:34:00.417Z,9.538269
2022-10-06T21:37:41.697Z,9.457703
2022-10-06T21:41:07.195Z,9.457703
2022-10-06T21:44:32.930Z,9.417419
2022-10-06T21:47:58.648Z,9.457703
2022-10-06T21:51:24.380Z,9.497986
2022-10-06T21:54:50.104Z,9.467773
2022-10-06T21:58:15.808Z,9.387207
2022-10-06T22:01:41.607Z,9.377136
2022-10-06T22:05:07.221Z,9.256287
2022-10-06T22:08:32.925Z,9.236145
2022-10-06T22:11:58.670Z,9.17572
2022-10-06T22:15:24.332Z,9.195862
2022-10-06T22:18:50.049Z,9.145508
2022-10-06T22:22:15.750Z,9.105225
2022-10-06T22:25:41.441Z,9.145508
2022-10-06T22:29:07.173Z,9.135437
2022-10-06T22:32:32.867Z,9.145508
2022-10-06T22:35:58.597Z,9.0448
2022-10-06T22:39:24.317Z,9.014587
2022-10-06T22:42:50.040Z,8.954163
2022-10-06T22:46:15.806Z,8.92395
2022-10-06T22:49:41.437Z,8.92395
2022-10-06T22:53:07.142Z,8.843384
2022-10-06T22:56:32.871Z,8.813171
2022-10-06T22:59:58.566Z,8.742676
2022-10-06T23:03:24.363Z,8.732605
2022-10-06T23:06:49.965Z,8.742676
2022-10-06T23:10:15.641Z,8.79303
2022-10-06T23:13:41.368Z,8.742676
2022-10-06T23:17:07.079Z,8.682251
2022-10-06T23:20:32.808Z,8.611755
2022-10-06T23:23:58.491Z,8.551331
2022-10-06T23:27:24.217Z,8.440552
2022-10-06T23:30:49.921Z,8.370056
2022-10-06T23:34:15.651Z,8.249207
2022-10-06T23:37:41.706Z,8.198853
2022-10-06T23:41:07.062Z,8.098145
2022-10-06T23:44:32.794Z,8.03772
2022-10-06T23:47:58.495Z,7.977295
2022-10-06T23:51:24.195Z,7.926941
2022-10-06T23:54:49.939Z,7.846375
2022-10-06T23:58:15.645Z,7.826233
